Terminal Aerodrome Forecast
Issued by NWS Omaha/Valley, NE

Home | Current Version | Previous Version | Graphics & Text | Print | Product List | Glossary Off
Versions: 1 2 3 4 5 6 7 8 9 10 11 12 13 14 15 16 17 18 19 20 21 22 23 24 25 26 27 28 29 30 31 32 33 34 35 36

000
FTUS43 KOAX 011139
TAFOFK
TAF
KOFK 011139Z 0112/0212 16004KT 5SM BR SCT005
      TEMPO 0112/0114 2SM BR OVC005
     FM011400 VRB03KT 4SM BR OVC008
     FM011700 34008KT P6SM BKN040=

USA.gov is the U.S. government's official web portal to all federal, state and local government web resources and services.